createdAt,value
2018-06-18T00:00:08.073Z,0
2018-06-18T00:01:17.241Z,0
2018-06-18T00:02:26.935Z,0
2018-06-18T00:03:36.622Z,0
2018-06-18T00:04:46.052Z,0
2018-06-18T00:05:55.749Z,0
2018-06-18T00:07:05.462Z,0
2018-06-18T00:08:14.116Z,0
2018-06-18T00:09:23.299Z,0
2018-06-18T00:10:32.752Z,0
2018-06-18T00:11:41.942Z,0
2018-06-18T00:12:51.681Z,0
2018-06-18T00:14:01.642Z,0
2018-06-18T00:15:11.091Z,0
2018-06-18T00:16:20.805Z,0
2018-06-18T00:17:30.557Z,0
2018-06-18T00:18:39.741Z,0
2018-06-18T00:19:48.925Z,0
2018-06-18T00:20:58.107Z,0
2018-06-18T00:22:07.820Z,0
2018-06-18T00:23:16.735Z,0
2018-06-18T00:24:26.163Z,0
2018-06-18T00:25:35.838Z,0
2018-06-18T00:26:45.002Z,0
2018-06-18T00:27:54.493Z,0
2018-06-18T00:29:03.159Z,0
2018-06-18T00:30:12.950Z,0
2018-06-18T00:31:22.891Z,0
2018-06-18T00:32:32.085Z,0
2018-06-18T00:33:41.517Z,0
2018-06-18T00:34:51.468Z,0
2018-06-18T00:36:00.681Z,0
2018-06-18T00:37:10.370Z,0
2018-06-18T00:38:19.813Z,0
2018-06-18T00:39:29.496Z,0
2018-06-18T00:40:38.925Z,0
2018-06-18T00:41:48.610Z,0
2018-06-18T00:42:57.525Z,0
2018-06-18T00:44:07.232Z,0
2018-06-18T00:45:16.659Z,0
2018-06-18T00:46:26.077Z,0
2018-06-18T00:47:35.506Z,0
2018-06-18T00:48:45.177Z,0
2018-06-18T00:49:54.898Z,0
2018-06-18T00:51:03.602Z,0
2018-06-18T00:52:12.277Z,0
2018-06-18T00:53:21.704Z,0
2018-06-18T00:54:31.394Z,0
2018-06-18T00:55:41.275Z,0
2018-06-18T00:56:50.967Z,0
2018-06-18T00:58:00.385Z,0
2018-06-18T00:59:09.293Z,0
2018-06-18T01:00:18.718Z,0
2018-06-18T01:01:28.413Z,0
2018-06-18T01:02:38.355Z,0
2018-06-18T01:03:47.273Z,0
2018-06-18T01:04:56.454Z,0
2018-06-18T01:06:05.861Z,0
2018-06-18T01:07:14.783Z,0
2018-06-18T01:08:24.223Z,0
2018-06-18T01:09:33.646Z,0
2018-06-18T01:10:42.823Z,0
2018-06-18T01:11:52.505Z,0
2018-06-18T01:13:01.959Z,0
2018-06-18T01:14:11.645Z,0
2018-06-18T01:15:20.809Z,0
2018-06-18T01:16:29.742Z,0
2018-06-18T01:17:39.181Z,0
2018-06-18T01:18:48.599Z,0
2018-06-18T01:19:58.097Z,0
2018-06-18T01:21:07.024Z,0
2018-06-18T01:22:16.191Z,0
2018-06-18T01:23:25.871Z,0
2018-06-18T01:24:35.810Z,0
2018-06-18T01:25:45.227Z,0
2018-06-18T01:26:54.127Z,0
2018-06-18T01:28:03.837Z,0
2018-06-18T01:29:13.535Z,0
2018-06-18T01:30:22.988Z,0
2018-06-18T01:31:32.458Z,0
2018-06-18T01:32:42.408Z,0
2018-06-18T01:33:51.836Z,0
2018-06-18T01:35:00.998Z,0
2018-06-18T01:36:10.414Z,0
2018-06-18T01:37:20.080Z,0
2018-06-18T01:38:29.535Z,0
2018-06-18T01:39:39.221Z,0
2018-06-18T01:40:48.137Z,0
2018-06-18T01:41:57.824Z,0
2018-06-18T01:43:07.016Z,0
2018-06-18T01:44:16.473Z,0
2018-06-18T01:45:25.641Z,0
2018-06-18T01:46:35.071Z,0
2018-06-18T01:47:43.986Z,0
2018-06-18T01:48:53.153Z,0
2018-06-18T01:50:02.863Z,0
2018-06-18T01:51:12.045Z,0
2018-06-18T01:52:20.698Z,0
2018-06-18T01:53:29.876Z,0
2018-06-18T01:54:38.799Z,0
2018-06-18T01:55:47.964Z,0
2018-06-18T01:56:57.133Z,0
2018-06-18T01:58:06.048Z,0
2018-06-18T01:59:15.211Z,0
2018-06-18T02:00:24.624Z,0
2018-06-18T02:01:34.303Z,0
2018-06-18T02:02:43.985Z,0
2018-06-18T02:03:53.660Z,0
2018-06-18T02:05:03.335Z,0
2018-06-18T02:06:12.757Z,0
2018-06-18T02:07:22.175Z,0
2018-06-18T02:08:31.602Z,0
2018-06-18T02:09:41.048Z,0
2018-06-18T02:10:49.960Z,0
2018-06-18T02:11:59.137Z,0
2018-06-18T02:13:08.841Z,0
2018-06-18T02:14:18.004Z,0
2018-06-18T02:15:27.180Z,0
2018-06-18T02:16:36.880Z,0
2018-06-18T02:17:46.589Z,0
2018-06-18T02:18:56.288Z,0
2018-06-18T02:20:05.712Z,0
2018-06-18T02:21:14.864Z,0
2018-06-18T02:22:24.856Z,0
2018-06-18T02:23:34.027Z,0
2018-06-18T02:24:43.461Z,0
2018-06-18T02:25:52.647Z,0
2018-06-18T02:27:02.596Z,0
2018-06-18T02:28:11.811Z,0
2018-06-18T02:29:20.989Z,0
2018-06-18T02:30:30.422Z,0
2018-06-18T02:31:39.838Z,0
2018-06-18T02:32:49.806Z,0
2018-06-18T02:33:59.490Z,0
2018-06-18T02:35:08.928Z,0
2018-06-18T02:36:18.369Z,0
2018-06-18T02:37:28.079Z,0
2018-06-18T02:38:37.783Z,0
2018-06-18T02:39:47.207Z,0
2018-06-18T02:40:56.633Z,0
2018-06-18T02:42:06.334Z,0
2018-06-18T02:43:15.487Z,0
2018-06-18T02:44:25.184Z,0
2018-06-18T02:45:34.889Z,0
2018-06-18T02:46:44.061Z,0
2018-06-18T02:47:52.994Z,0
2018-06-18T02:49:02.177Z,0
2018-06-18T02:50:11.352Z,0
2018-06-18T02:51:21.045Z,0
2018-06-18T02:52:30.740Z,0
2018-06-18T02:53:40.172Z,0
2018-06-18T02:54:49.882Z,0
2018-06-18T02:55:59.291Z,0
2018-06-18T02:57:08.451Z,0
2018-06-18T02:58:17.863Z,0
2018-06-18T02:59:27.062Z,0
2018-06-18T03:00:37.004Z,0
2018-06-18T03:01:45.919Z,0
2018-06-18T03:02:55.352Z,0
2018-06-18T03:04:05.351Z,0
2018-06-18T03:05:15.056Z,0
2018-06-18T03:06:25.022Z,0
2018-06-18T03:07:34.700Z,0
2018-06-18T03:08:44.131Z,0
2018-06-18T03:09:54.072Z,0
2018-06-18T03:11:03.512Z,0
2018-06-18T03:12:12.707Z,0
2018-06-18T03:13:21.638Z,0
2018-06-18T03:14:31.327Z,0
2018-06-18T03:15:40.765Z,0
2018-06-18T03:16:50.206Z,0
2018-06-18T03:17:59.916Z,0
2018-06-18T03:19:08.834Z,0
2018-06-18T03:20:18.943Z,0
2018-06-18T03:21:28.369Z,0
2018-06-18T03:22:38.061Z,0
2018-06-18T03:23:47.487Z,0
2018-06-18T03:24:56.649Z,0
2018-06-18T03:26:05.830Z,0
2018-06-18T03:27:15.012Z,0
2018-06-18T03:28:24.422Z,0
2018-06-18T03:29:34.125Z,0
2018-06-18T03:30:43.828Z,0
2018-06-18T03:31:53.814Z,0
2018-06-18T03:33:03.505Z,0
2018-06-18T03:34:12.417Z,0
2018-06-18T03:35:21.585Z,0
2018-06-18T03:36:30.745Z,0
2018-06-18T03:37:39.924Z,0
2018-06-18T03:38:49.086Z,0
2018-06-18T03:39:58.252Z,0
2018-06-18T03:41:07.934Z,0
2018-06-18T03:42:17.367Z,0
2018-06-18T03:43:26.550Z,0
2018-06-18T03:44:36.238Z,0
2018-06-18T03:45:45.675Z,0
2018-06-18T03:46:54.875Z,0
2018-06-18T03:48:03.519Z,0
2018-06-18T03:49:13.194Z,0
2018-06-18T03:50:22.642Z,0
2018-06-18T03:51:32.069Z,0
2018-06-18T03:52:41.243Z,0
2018-06-18T03:53:50.661Z,0
2018-06-18T03:54:59.581Z,0
2018-06-18T03:56:09.336Z,0
2018-06-18T03:57:18.775Z,0
2018-06-18T03:58:28.219Z,0
2018-06-18T03:59:37.393Z,0
2018-06-18T04:00:47.081Z,0
2018-06-18T04:01:56.763Z,0
2018-06-18T04:03:06.461Z,0
2018-06-18T04:04:15.879Z,0
2018-06-18T04:05:26.121Z,0
2018-06-18T04:06:35.896Z,0
2018-06-18T04:07:45.057Z,0
2018-06-18T04:08:55.033Z,0
2018-06-18T04:10:04.206Z,0
2018-06-18T04:11:13.412Z,0
2018-06-18T04:12:22.830Z,0
2018-06-18T04:13:32.130Z,0
2018-06-18T04:14:41.296Z,0
2018-06-18T04:15:51.259Z,0
2018-06-18T04:16:59.948Z,0
2018-06-18T04:18:09.364Z,0
2018-06-18T04:19:18.803Z,0
2018-06-18T04:20:28.522Z,0
2018-06-18T04:21:38.220Z,0
2018-06-18T04:22:47.651Z,0
2018-06-18T04:23:56.812Z,0
2018-06-18T04:25:05.998Z,0
2018-06-18T04:26:15.985Z,0
2018-06-18T04:27:25.408Z,0
2018-06-18T04:28:35.076Z,0
2018-06-18T04:29:44.265Z,0
2018-06-18T04:30:54.018Z,0
2018-06-18T04:32:03.406Z,0
2018-06-18T04:33:12.589Z,0
2018-06-18T04:34:21.781Z,0
2018-06-18T04:35:31.744Z,0
2018-06-18T04:36:41.707Z,0
2018-06-18T04:37:51.984Z,0
2018-06-18T04:39:01.221Z,0
2018-06-18T04:40:11.175Z,0
2018-06-18T04:41:20.341Z,0
2018-06-18T04:42:29.519Z,0
2018-06-18T04:43:39.193Z,0
2018-06-18T04:44:49.059Z,0
2018-06-18T04:45:58.869Z,0
2018-06-18T04:47:08.298Z,0
2018-06-18T04:48:17.723Z,0
2018-06-18T04:49:26.890Z,0
2018-06-18T04:50:36.067Z,0
2018-06-18T04:51:45.769Z,0
2018-06-18T04:52:55.478Z,0
2018-06-18T04:54:04.903Z,0
2018-06-18T04:55:14.581Z,0
2018-06-18T04:56:24.109Z,0
2018-06-18T04:57:33.976Z,0
2018-06-18T04:58:43.392Z,0
2018-06-18T04:59:52.295Z,4
2018-06-18T05:01:00.946Z,4
2018-06-18T05:02:10.129Z,4
2018-06-18T05:03:19.819Z,4
2018-06-18T05:04:28.728Z,4
2018-06-18T05:05:38.142Z,4
2018-06-18T05:06:47.612Z,4
2018-06-18T05:07:57.038Z,4
2018-06-18T05:09:05.954Z,4
2018-06-18T05:10:15.401Z,4
2018-06-18T05:11:24.609Z,4
2018-06-18T05:12:33.260Z,4
2018-06-18T05:13:42.686Z,4
2018-06-18T05:14:52.131Z,0
2018-06-18T05:16:01.292Z,0
2018-06-18T05:17:10.731Z,0
2018-06-18T05:18:19.905Z,0
2018-06-18T05:19:29.349Z,0
2018-06-18T05:20:38.873Z,0
2018-06-18T05:21:48.307Z,0
2018-06-18T05:22:57.209Z,0
2018-06-18T05:24:06.710Z,0
2018-06-18T05:25:16.194Z,0
2018-06-18T05:26:25.871Z,0
2018-06-18T05:27:35.104Z,0
2018-06-18T05:28:44.258Z,0
2018-06-18T05:29:53.937Z,0
2018-06-18T05:31:03.384Z,0
2018-06-18T05:32:12.827Z,0
2018-06-18T05:33:22.265Z,0
2018-06-18T05:34:31.422Z,0
2018-06-18T05:35:41.364Z,4
2018-06-18T05:36:51.097Z,4
2018-06-18T05:38:01.035Z,4
2018-06-18T05:39:10.200Z,4
2018-06-18T05:40:19.669Z,4
2018-06-18T05:41:29.378Z,4
2018-06-18T05:42:38.541Z,4
2018-06-18T05:43:48.033Z,4
2018-06-18T05:44:57.531Z,8
2018-06-18T05:46:07.210Z,4
2018-06-18T05:47:16.660Z,4
2018-06-18T05:48:26.347Z,4
2018-06-18T05:49:35.507Z,4
2018-06-18T05:50:45.468Z,4
2018-06-18T05:51:54.995Z,4
2018-06-18T05:53:04.423Z,4
2018-06-18T05:54:14.098Z,4
2018-06-18T05:55:23.579Z,4
2018-06-18T05:56:32.525Z,4
2018-06-18T05:57:42.197Z,4
2018-06-18T05:58:51.892Z,4
2018-06-18T06:00:01.098Z,4
2018-06-18T06:01:10.789Z,0
2018-06-18T06:02:20.267Z,0
2018-06-18T06:03:29.419Z,0
2018-06-18T06:04:39.122Z,4
2018-06-18T06:05:48.809Z,4
2018-06-18T06:06:58.212Z,8
2018-06-18T06:08:08.150Z,4
2018-06-18T06:09:17.846Z,4
2018-06-18T06:10:27.789Z,4
2018-06-18T06:11:37.235Z,8
2018-06-18T06:12:47.208Z,8
2018-06-18T06:13:56.959Z,8
2018-06-18T06:15:06.413Z,8
2018-06-18T06:16:15.856Z,8
2018-06-18T06:17:24.531Z,4
2018-06-18T06:18:34.231Z,4
2018-06-18T06:19:43.670Z,4
2018-06-18T06:20:52.846Z,4
2018-06-18T06:22:02.277Z,4
2018-06-18T06:23:11.441Z,4
2018-06-18T06:24:20.861Z,4
2018-06-18T06:25:30.555Z,4
2018-06-18T06:26:39.200Z,4
2018-06-18T06:27:49.138Z,8
2018-06-18T06:28:58.574Z,8
2018-06-18T06:30:07.997Z,8
2018-06-18T06:31:17.686Z,8
2018-06-18T06:32:27.362Z,8
2018-06-18T06:33:36.529Z,8
2018-06-18T06:34:45.723Z,12
2018-06-18T06:35:55.431Z,8
2018-06-18T06:37:05.110Z,8
2018-06-18T06:38:14.528Z,12
2018-06-18T06:39:23.691Z,12
2018-06-18T06:40:33.354Z,12
2018-06-18T06:41:43.034Z,16
2018-06-18T06:42:52.480Z,16
2018-06-18T06:44:01.384Z,20
2018-06-18T06:45:10.907Z,12
2018-06-18T06:46:20.350Z,12
2018-06-18T06:47:29.777Z,12
2018-06-18T06:48:38.678Z,8
2018-06-18T06:49:48.120Z,8
2018-06-18T06:50:57.798Z,8
2018-06-18T06:52:06.942Z,8
2018-06-18T06:53:16.880Z,8
2018-06-18T06:54:26.305Z,8
2018-06-18T06:55:36.024Z,8
2018-06-18T06:56:45.443Z,8
2018-06-18T06:57:55.118Z,8
2018-06-18T06:59:04.556Z,8
2018-06-18T07:00:14.056Z,8
2018-06-18T07:01:23.758Z,8
2018-06-18T07:02:33.794Z,8
2018-06-18T07:03:42.959Z,8
2018-06-18T07:04:52.401Z,8
2018-06-18T07:06:02.085Z,4
2018-06-18T07:07:11.758Z,4
2018-06-18T07:08:20.403Z,4
2018-06-18T07:09:30.342Z,8
2018-06-18T07:10:40.033Z,4
2018-06-18T07:11:49.734Z,4
2018-06-18T07:12:59.212Z,4
2018-06-18T07:14:09.177Z,8
2018-06-18T07:15:18.872Z,8
2018-06-18T07:16:28.325Z,8
2018-06-18T07:17:37.503Z,8
2018-06-18T07:18:47.176Z,8
2018-06-18T07:19:56.628Z,4
2018-06-18T07:21:06.053Z,8
2018-06-18T07:22:15.508Z,4
2018-06-18T07:23:24.932Z,4
2018-06-18T07:24:34.357Z,4
2018-06-18T07:25:44.049Z,4
2018-06-18T07:26:53.477Z,8
2018-06-18T07:28:03.254Z,8
2018-06-18T07:29:13.029Z,4
2018-06-18T07:30:22.680Z,4
2018-06-18T07:31:32.898Z,4
2018-06-18T07:32:42.319Z,8
2018-06-18T07:33:51.282Z,4
2018-06-18T07:35:00.465Z,4
2018-06-18T07:36:09.641Z,4
2018-06-18T07:37:18.811Z,4
2018-06-18T07:38:28.306Z,4
2018-06-18T07:39:37.796Z,8
2018-06-18T07:40:47.763Z,4
2018-06-18T07:41:57.262Z,4
2018-06-18T07:43:06.705Z,8
2018-06-18T07:44:16.665Z,4
2018-06-18T07:45:26.398Z,4
2018-06-18T07:46:35.587Z,4
2018-06-18T07:47:45.052Z,4
2018-06-18T07:48:54.740Z,4
2018-06-18T07:50:04.685Z,4
2018-06-18T07:51:14.125Z,8
2018-06-18T07:52:23.566Z,8
2018-06-18T07:53:33.297Z,4
2018-06-18T07:54:42.482Z,4
2018-06-18T07:55:52.156Z,4
2018-06-18T07:57:01.070Z,4
2018-06-18T07:58:10.500Z,4
2018-06-18T07:59:19.931Z,8
2018-06-18T08:00:29.361Z,4
2018-06-18T08:01:38.824Z,4
2018-06-18T08:02:48.250Z,4
2018-06-18T08:03:57.188Z,8
2018-06-18T08:05:06.365Z,8
2018-06-18T08:06:16.043Z,8
2018-06-18T08:07:25.206Z,8
2018-06-18T08:08:34.107Z,8
2018-06-18T08:09:43.470Z,4
2018-06-18T08:10:53.524Z,8
2018-06-18T08:12:02.960Z,8
2018-06-18T08:13:12.410Z,8
2018-06-18T08:14:21.835Z,8
2018-06-18T08:15:31.020Z,8
2018-06-18T08:16:40.703Z,8
2018-06-18T08:17:50.378Z,8
2018-06-18T08:18:59.586Z,8
2018-06-18T08:20:08.773Z,8
2018-06-18T08:21:18.461Z,8
2018-06-18T08:22:28.132Z,8
2018-06-18T08:23:37.303Z,8
2018-06-18T08:24:46.731Z,8
2018-06-18T08:25:56.418Z,12
2018-06-18T08:27:05.950Z,12
2018-06-18T08:28:15.131Z,12
2018-06-18T08:29:24.823Z,12
2018-06-18T08:30:33.726Z,8
2018-06-18T08:31:42.923Z,8
2018-06-18T08:32:52.617Z,8
2018-06-18T08:34:01.803Z,8
2018-06-18T08:35:11.001Z,8
2018-06-18T08:36:20.548Z,8
2018-06-18T08:37:29.464Z,8
2018-06-18T08:38:39.406Z,12
2018-06-18T08:39:49.348Z,8
2018-06-18T08:40:58.785Z,8
2018-06-18T08:42:08.221Z,8
2018-06-18T08:43:17.428Z,12
2018-06-18T08:44:27.377Z,8
2018-06-18T08:45:36.561Z,12
2018-06-18T08:46:46.542Z,12
2018-06-18T08:47:56.243Z,12
2018-06-18T08:49:05.666Z,12
2018-06-18T08:50:15.637Z,12
2018-06-18T08:51:25.341Z,12
2018-06-18T08:52:34.513Z,12
2018-06-18T08:53:43.670Z,16
2018-06-18T08:54:53.097Z,16
2018-06-18T08:56:03.030Z,12
2018-06-18T08:57:12.211Z,12
2018-06-18T08:58:21.641Z,16
2018-06-18T08:59:31.062Z,16
2018-06-18T09:00:40.492Z,16
2018-06-18T09:01:50.208Z,12
2018-06-18T09:02:59.904Z,12
2018-06-18T09:04:09.329Z,12
2018-06-18T09:05:18.750Z,12
2018-06-18T09:06:27.942Z,16
2018-06-18T09:07:37.378Z,16
2018-06-18T09:08:47.122Z,12
2018-06-18T09:09:56.633Z,12
2018-06-18T09:11:06.065Z,24
2018-06-18T09:12:15.487Z,16
2018-06-18T09:13:24.651Z,12
2018-06-18T09:14:34.103Z,16
2018-06-18T09:15:43.070Z,12
2018-06-18T09:16:52.758Z,12
2018-06-18T09:18:02.446Z,8
2018-06-18T09:19:12.182Z,12
2018-06-18T09:20:21.401Z,12
2018-06-18T09:21:30.829Z,8
2018-06-18T09:22:39.743Z,8
2018-06-18T09:23:49.755Z,8
2018-06-18T09:24:59.163Z,8
2018-06-18T09:26:08.846Z,8
2018-06-18T09:27:18.275Z,8
2018-06-18T09:28:27.973Z,4
2018-06-18T09:29:37.403Z,4
2018-06-18T09:30:46.844Z,4
2018-06-18T09:31:56.071Z,4
2018-06-18T09:33:05.261Z,4
2018-06-18T09:34:14.965Z,4
2018-06-18T09:35:24.650Z,4
2018-06-18T09:36:34.089Z,8
2018-06-18T09:37:43.525Z,4
2018-06-18T09:38:53.201Z,4
2018-06-18T09:40:02.656Z,4
2018-06-18T09:41:11.819Z,8
2018-06-18T09:42:21.758Z,8
2018-06-18T09:43:30.932Z,8
2018-06-18T09:44:39.843Z,12
2018-06-18T09:45:49.774Z,12
2018-06-18T09:46:59.192Z,12
2018-06-18T09:48:09.179Z,12
2018-06-18T09:49:18.374Z,12
2018-06-18T09:50:27.805Z,8
2018-06-18T09:51:37.497Z,8
2018-06-18T09:52:46.917Z,8
2018-06-18T09:53:55.832Z,12
2018-06-18T09:55:05.003Z,12
2018-06-18T09:56:14.166Z,8
2018-06-18T09:57:23.631Z,12
2018-06-18T09:58:33.582Z,8
2018-06-18T09:59:43.305Z,8
2018-06-18T10:00:52.474Z,8
2018-06-18T10:02:02.424Z,4
2018-06-18T10:03:11.324Z,4
2018-06-18T10:04:20.750Z,4
2018-06-18T10:05:30.444Z,8
2018-06-18T10:06:39.890Z,8
2018-06-18T10:07:49.839Z,4
2018-06-18T10:08:59.260Z,4
2018-06-18T10:10:08.409Z,4
2018-06-18T10:11:18.107Z,8
2018-06-18T10:12:27.544Z,8
2018-06-18T10:13:37.221Z,8
2018-06-18T10:14:46.650Z,8
2018-06-18T10:15:55.824Z,8
2018-06-18T10:17:05.258Z,8
2018-06-18T10:18:14.419Z,8
2018-06-18T10:19:23.831Z,12
2018-06-18T10:20:33.280Z,12
2018-06-18T10:21:42.768Z,12
2018-06-18T10:22:52.003Z,12
2018-06-18T10:24:01.695Z,12
2018-06-18T10:25:11.129Z,12
2018-06-18T10:26:20.805Z,12
2018-06-18T10:27:30.241Z,16
2018-06-18T10:28:39.434Z,16
2018-06-18T10:29:49.396Z,16
2018-06-18T10:30:58.724Z,20
2018-06-18T10:32:07.827Z,24
2018-06-18T10:33:17.249Z,28
2018-06-18T10:34:26.679Z,20
2018-06-18T10:35:36.358Z,24
2018-06-18T10:36:45.523Z,28
2018-06-18T10:37:54.423Z,28
2018-06-18T10:39:04.109Z,28
2018-06-18T10:40:13.528Z,28
2018-06-18T10:41:22.423Z,36
2018-06-18T10:42:32.408Z,28
2018-06-18T10:43:42.092Z,24
2018-06-18T10:44:51.263Z,24
2018-06-18T10:46:00.446Z,16
2018-06-18T10:47:09.614Z,16
2018-06-18T10:48:19.049Z,12
2018-06-18T10:49:28.736Z,8
2018-06-18T10:50:38.412Z,8
2018-06-18T10:51:47.837Z,8
2018-06-18T10:52:57.544Z,4
2018-06-18T10:54:07.226Z,4
2018-06-18T10:55:16.913Z,4
2018-06-18T10:56:26.366Z,8
2018-06-18T10:57:36.089Z,4
2018-06-18T10:58:45.797Z,8
2018-06-18T10:59:55.404Z,8
2018-06-18T11:01:04.588Z,8
2018-06-18T11:02:13.507Z,4
2018-06-18T11:03:23.239Z,8
2018-06-18T11:04:32.724Z,8
2018-06-18T11:05:42.346Z,8
2018-06-18T11:06:51.655Z,8
2018-06-18T11:08:01.317Z,8
2018-06-18T11:09:11.595Z,8
2018-06-18T11:10:21.900Z,8
2018-06-18T11:11:31.575Z,8
2018-06-18T11:12:41.254Z,8
2018-06-18T11:13:51.320Z,8
2018-06-18T11:15:00.580Z,8
2018-06-18T11:16:09.997Z,8
2018-06-18T11:17:21.368Z,8
2018-06-18T11:18:30.985Z,4
2018-06-18T11:19:40.456Z,4
2018-06-18T11:20:49.647Z,8
2018-06-18T11:21:59.559Z,8
2018-06-18T11:23:08.736Z,8
2018-06-18T11:24:17.686Z,8
2018-06-18T11:25:27.754Z,8
2018-06-18T11:26:38.024Z,8
2018-06-18T11:27:46.964Z,8
2018-06-18T11:28:56.669Z,4
2018-06-18T11:30:06.349Z,8
2018-06-18T11:31:16.333Z,4
2018-06-18T11:32:26.357Z,8
2018-06-18T11:33:35.850Z,8
2018-06-18T11:34:45.792Z,12
2018-06-18T11:35:55.616Z,8
2018-06-18T11:37:05.590Z,12
2018-06-18T11:38:14.515Z,8
2018-06-18T11:39:24.257Z,8
2018-06-18T11:40:34.390Z,8
2018-06-18T11:41:44.816Z,8
2018-06-18T11:42:54.420Z,4
2018-06-18T11:44:03.897Z,4
2018-06-18T11:45:13.570Z,4
2018-06-18T11:46:22.753Z,4
2018-06-18T11:47:32.176Z,4
2018-06-18T11:48:41.348Z,8
2018-06-18T11:49:50.519Z,4
2018-06-18T11:51:00.225Z,8
2018-06-18T11:52:09.388Z,8
2018-06-18T11:53:19.082Z,8
2018-06-18T11:54:28.613Z,12
2018-06-18T11:55:38.297Z,8
2018-06-18T11:56:47.703Z,8
2018-06-18T11:57:57.379Z,8
2018-06-18T11:59:07.078Z,12
2018-06-18T12:00:15.985Z,8
2018-06-18T12:01:25.543Z,8
2018-06-18T12:02:34.814Z,4
2018-06-18T12:03:44.504Z,8
2018-06-18T12:04:53.986Z,8
2018-06-18T12:06:02.897Z,4
2018-06-18T12:07:12.231Z,4
2018-06-18T12:08:22.311Z,8
2018-06-18T12:09:32.272Z,4
2018-06-18T12:10:41.857Z,4
2018-06-18T12:11:51.987Z,4
2018-06-18T12:13:01.151Z,4
2018-06-18T12:14:10.323Z,4
2018-06-18T12:15:19.498Z,4
2018-06-18T12:16:28.664Z,8
2018-06-18T12:17:38.592Z,8
2018-06-18T12:18:48.022Z,8
2018-06-18T12:19:57.716Z,4
2018-06-18T12:21:06.897Z,4
2018-06-18T12:22:16.365Z,4
2018-06-18T12:23:25.920Z,4
2018-06-18T12:24:35.347Z,8
2018-06-18T12:25:44.264Z,4
2018-06-18T12:26:53.701Z,4
2018-06-18T12:28:02.908Z,4
2018-06-18T12:29:12.342Z,4
2018-06-18T12:30:21.775Z,8
2018-06-18T12:31:31.709Z,4
2018-06-18T12:32:41.164Z,8
2018-06-18T12:33:50.602Z,8
2018-06-18T12:34:59.775Z,8
2018-06-18T12:36:09.206Z,8
2018-06-18T12:37:17.879Z,12
2018-06-18T12:38:27.585Z,8
2018-06-18T12:39:37.260Z,8
2018-06-18T12:40:46.943Z,8
2018-06-18T12:41:56.626Z,8
2018-06-18T12:43:06.573Z,12
2018-06-18T12:44:15.468Z,12
2018-06-18T12:45:24.896Z,12
2018-06-18T12:46:33.925Z,12
2018-06-18T12:47:43.373Z,8
2018-06-18T12:48:53.094Z,8
2018-06-18T12:50:02.514Z,8
2018-06-18T12:51:11.962Z,4
2018-06-18T12:52:21.137Z,4
2018-06-18T12:53:30.307Z,4
2018-06-18T12:54:40.016Z,4
2018-06-18T12:55:49.697Z,4
2018-06-18T12:56:59.390Z,4
2018-06-18T12:58:08.806Z,4
2018-06-18T12:59:17.716Z,4
2018-06-18T13:00:27.140Z,8
2018-06-18T13:01:36.373Z,8
2018-06-18T13:02:45.557Z,12
2018-06-18T13:03:54.998Z,16
2018-06-18T13:05:04.453Z,16
2018-06-18T13:06:13.613Z,16
2018-06-18T13:07:23.032Z,12
2018-06-18T13:08:32.470Z,12
2018-06-18T13:09:41.890Z,12
2018-06-18T13:10:51.569Z,12
2018-06-18T13:12:00.990Z,16
2018-06-18T13:13:10.157Z,16
2018-06-18T13:14:19.572Z,16
2018-06-18T13:15:28.994Z,16
2018-06-18T13:16:38.681Z,12
2018-06-18T13:17:48.281Z,12
2018-06-18T13:18:57.977Z,12
2018-06-18T13:20:07.912Z,12
2018-06-18T13:21:18.033Z,12
2018-06-18T13:22:26.950Z,12
2018-06-18T13:23:35.869Z,12
2018-06-18T13:24:45.547Z,8
2018-06-18T13:25:54.973Z,12
2018-06-18T13:27:04.463Z,8
2018-06-18T13:28:14.170Z,8
2018-06-18T13:29:22.826Z,8
2018-06-18T13:30:32.357Z,4
2018-06-18T13:31:42.049Z,4
2018-06-18T13:32:50.968Z,4
2018-06-18T13:34:00.407Z,4
2018-06-18T13:35:10.223Z,8
2018-06-18T13:36:19.171Z,8
2018-06-18T13:37:28.596Z,4
2018-06-18T13:38:37.495Z,4
2018-06-18T13:39:47.195Z,4
2018-06-18T13:40:56.354Z,4
2018-06-18T13:42:05.779Z,0
2018-06-18T13:43:14.706Z,0
2018-06-18T13:44:24.144Z,4
2018-06-18T13:45:33.572Z,4
2018-06-18T13:46:43.498Z,8
2018-06-18T13:47:53.191Z,8
2018-06-18T13:49:02.922Z,4
2018-06-18T13:50:11.867Z,4
2018-06-18T13:51:21.517Z,4
2018-06-18T13:52:31.164Z,4
2018-06-18T13:53:40.652Z,4
2018-06-18T13:54:50.314Z,4
2018-06-18T13:56:00.034Z,4
2018-06-18T13:57:09.612Z,4
2018-06-18T13:58:19.500Z,4
2018-06-18T13:59:29.209Z,4
2018-06-18T14:00:38.128Z,8
2018-06-18T14:01:47.801Z,8
2018-06-18T14:02:56.975Z,8
2018-06-18T14:04:06.669Z,4
2018-06-18T14:05:16.356Z,4
2018-06-18T14:06:25.535Z,8
2018-06-18T14:07:35.478Z,8
2018-06-18T14:08:44.891Z,4
2018-06-18T14:09:54.569Z,4
2018-06-18T14:11:04.309Z,4
2018-06-18T14:12:14.022Z,8
2018-06-18T14:13:23.462Z,4
2018-06-18T14:14:32.500Z,8
2018-06-18T14:15:41.663Z,8
2018-06-18T14:16:51.354Z,8
2018-06-18T14:18:01.039Z,8
2018-06-18T14:19:09.969Z,4
2018-06-18T14:20:19.646Z,4
2018-06-18T14:21:28.563Z,4
2018-06-18T14:22:38.003Z,8
2018-06-18T14:23:47.415Z,8
2018-06-18T14:24:56.563Z,8
2018-06-18T14:26:06.248Z,8
2018-06-18T14:27:15.660Z,8
2018-06-18T14:28:25.612Z,8
2018-06-18T14:29:35.336Z,8
2018-06-18T14:30:44.857Z,8
2018-06-18T14:31:54.277Z,8
2018-06-18T14:33:04.009Z,8
2018-06-18T14:34:13.202Z,8
2018-06-18T14:35:22.628Z,8
2018-06-18T14:36:32.610Z,8
2018-06-18T14:37:42.327Z,8
2018-06-18T14:38:51.240Z,8
2018-06-18T14:40:00.443Z,8
2018-06-18T14:41:09.866Z,8
2018-06-18T14:42:20.354Z,8
2018-06-18T14:43:29.873Z,8
2018-06-18T14:44:39.298Z,8
2018-06-18T14:45:49.446Z,8
2018-06-18T14:46:58.974Z,8
2018-06-18T14:48:08.187Z,8
2018-06-18T14:49:17.935Z,8
2018-06-18T14:50:27.358Z,8
2018-06-18T14:51:36.784Z,8
2018-06-18T14:52:46.393Z,8
2018-06-18T14:53:55.870Z,8
2018-06-18T14:55:05.301Z,8
2018-06-18T14:56:14.845Z,4
2018-06-18T14:57:24.265Z,8
2018-06-18T14:58:33.177Z,8
2018-06-18T14:59:43.128Z,8
2018-06-18T15:00:52.627Z,12
2018-06-18T15:02:02.250Z,8
2018-06-18T15:03:11.705Z,12
2018-06-18T15:04:21.142Z,12
2018-06-18T15:05:30.051Z,32
2018-06-18T15:06:39.737Z,20
2018-06-18T15:07:49.393Z,20
2018-06-18T15:08:59.332Z,20
2018-06-18T15:10:09.360Z,16
2018-06-18T15:11:19.097Z,20
2018-06-18T15:12:28.256Z,16
2018-06-18T15:13:37.426Z,12
2018-06-18T15:14:47.358Z,12
2018-06-18T15:15:57.498Z,16
2018-06-18T15:17:06.992Z,12
2018-06-18T15:18:16.436Z,36
2018-06-18T15:19:26.371Z,12
2018-06-18T15:20:35.992Z,8
2018-06-18T15:21:45.453Z,12
2018-06-18T15:22:54.869Z,16
2018-06-18T15:24:04.049Z,12
2018-06-18T15:25:13.921Z,8
2018-06-18T15:26:23.129Z,12
2018-06-18T15:27:32.064Z,8
2018-06-18T15:28:41.494Z,12
2018-06-18T15:29:50.753Z,8
2018-06-18T15:31:00.218Z,12
2018-06-18T15:32:09.634Z,12
2018-06-18T15:33:19.189Z,12
2018-06-18T15:34:28.613Z,8
2018-06-18T15:35:38.297Z,12
2018-06-18T15:36:47.981Z,8
2018-06-18T15:37:57.452Z,8
2018-06-18T15:39:07.127Z,8
2018-06-18T15:40:16.835Z,4
2018-06-18T15:41:25.721Z,8
2018-06-18T15:42:34.895Z,8
2018-06-18T15:43:44.682Z,4
2018-06-18T15:44:54.491Z,4
2018-06-18T15:46:03.673Z,4
2018-06-18T15:47:13.136Z,4
2018-06-18T15:48:22.128Z,4
2018-06-18T15:49:31.328Z,4
2018-06-18T15:50:41.428Z,4
2018-06-18T15:51:51.406Z,4
2018-06-18T15:53:00.580Z,8
2018-06-18T15:54:10.290Z,4
2018-06-18T15:55:19.541Z,4
2018-06-18T15:56:28.692Z,8
2018-06-18T15:57:37.941Z,4
2018-06-18T15:58:47.402Z,8
2018-06-18T15:59:57.093Z,8
2018-06-18T16:01:06.549Z,8
2018-06-18T16:02:16.126Z,8
2018-06-18T16:03:25.293Z,8
2018-06-18T16:04:34.702Z,8
2018-06-18T16:05:43.858Z,8
2018-06-18T16:06:53.523Z,4
2018-06-18T16:08:03.220Z,4
2018-06-18T16:09:13.216Z,4
2018-06-18T16:10:23.252Z,4
2018-06-18T16:11:32.207Z,4
2018-06-18T16:12:42.505Z,4
2018-06-18T16:13:52.184Z,4
2018-06-18T16:15:01.627Z,8
2018-06-18T16:16:11.308Z,8
2018-06-18T16:17:20.455Z,8
2018-06-18T16:18:29.611Z,8
2018-06-18T16:19:39.019Z,8
2018-06-18T16:20:48.964Z,8
2018-06-18T16:21:58.899Z,8
2018-06-18T16:23:08.374Z,8
2018-06-18T16:24:18.053Z,4
2018-06-18T16:25:27.278Z,4
2018-06-18T16:26:36.711Z,8
2018-06-18T16:27:46.147Z,8
2018-06-18T16:28:55.589Z,4
2018-06-18T16:30:04.997Z,8
2018-06-18T16:31:14.159Z,8
2018-06-18T16:32:23.877Z,8
2018-06-18T16:33:33.835Z,4
2018-06-18T16:34:43.298Z,4
2018-06-18T16:35:53.000Z,4
2018-06-18T16:37:02.688Z,8
2018-06-18T16:38:12.076Z,8
2018-06-18T16:39:21.747Z,8
2018-06-18T16:40:31.686Z,8
2018-06-18T16:41:41.363Z,8
2018-06-18T16:42:51.303Z,8
2018-06-18T16:44:00.733Z,8
2018-06-18T16:45:09.399Z,8
2018-06-18T16:46:18.563Z,4
2018-06-18T16:47:27.987Z,8
2018-06-18T16:48:36.888Z,4
2018-06-18T16:49:46.069Z,8
2018-06-18T16:50:55.481Z,4
2018-06-18T16:52:04.912Z,4
2018-06-18T16:53:14.046Z,4
2018-06-18T16:54:23.204Z,4
2018-06-18T16:55:32.662Z,4
2018-06-18T16:56:41.864Z,4
2018-06-18T16:57:51.038Z,4
2018-06-18T16:59:00.546Z,4
2018-06-18T17:00:09.731Z,4
2018-06-18T17:01:19.706Z,4